sensor_id;sensor_type;location;lat;lon;timestamp;P1;durP1;ratioP1;P2;durP2;ratioP2
6809;SDS011;3443;48.812;9.112;2023-04-29T00:01:06;0.77;;;0.77;;
6809;SDS011;3443;48.812;9.112;2023-04-29T00:03:32;1.48;;;0.80;;
6809;SDS011;3443;48.812;9.112;2023-04-29T00:05:58;2.45;;;0.95;;
6809;SDS011;3443;48.812;9.112;2023-04-29T00:08:24;1.20;;;0.88;;
6809;SDS011;3443;48.812;9.112;2023-04-29T00:10:50;0.65;;;0.65;;
6809;SDS011;3443;48.812;9.112;2023-04-29T00:13:15;2.45;;;1.00;;
6809;SDS011;3443;48.812;9.112;2023-04-29T00:15:41;0.88;;;0.88;;
6809;SDS011;3443;48.812;9.112;2023-04-29T00:18:07;1.80;;;0.80;;
6809;SDS011;3443;48.812;9.112;2023-04-29T00:20:34;0.88;;;0.85;;
6809;SDS011;3443;48.812;9.112;2023-04-29T00:23:00;1.60;;;0.70;;
6809;SDS011;3443;48.812;9.112;2023-04-29T00:25:25;0.95;;;0.80;;
6809;SDS011;3443;48.812;9.112;2023-04-29T00:27:51;1.30;;;0.73;;
6809;SDS011;3443;48.812;9.112;2023-04-29T00:30:16;0.80;;;0.77;;
6809;SDS011;3443;48.812;9.112;2023-04-29T00:32:42;1.38;;;1.00;;
6809;SDS011;3443;48.812;9.112;2023-04-29T00:35:08;0.70;;;0.70;;
6809;SDS011;3443;48.812;9.112;2023-04-29T00:37:34;0.80;;;0.80;;
6809;SDS011;3443;48.812;9.112;2023-04-29T00:40:00;1.00;;;0.90;;
6809;SDS011;3443;48.812;9.112;2023-04-29T00:42:26;0.80;;;0.80;;
6809;SDS011;3443;48.812;9.112;2023-04-29T00:44:53;1.27;;;0.73;;
6809;SDS011;3443;48.812;9.112;2023-04-29T00:47:18;0.90;;;0.90;;
6809;SDS011;3443;48.812;9.112;2023-04-29T00:49:44;0.88;;;0.88;;
6809;SDS011;3443;48.812;9.112;2023-04-29T00:52:12;1.25;;;0.80;;
6809;SDS011;3443;48.812;9.112;2023-04-29T00:54:39;1.95;;;1.05;;
6809;SDS011;3443;48.812;9.112;2023-04-29T00:57:05;0.90;;;0.90;;
6809;SDS011;3443;48.812;9.112;2023-04-29T00:59:31;1.10;;;0.95;;
6809;SDS011;3443;48.812;9.112;2023-04-29T01:02:02;1.35;;;0.80;;
6809;SDS011;3443;48.812;9.112;2023-04-29T01:04:28;1.35;;;0.88;;
6809;SDS011;3443;48.812;9.112;2023-04-29T01:12:25;2.00;;;1.15;;
6809;SDS011;3443;48.812;9.112;2023-04-29T01:15:21;1.88;;;0.98;;
6809;SDS011;3443;48.812;9.112;2023-04-29T01:20:23;1.60;;;1.17;;
6809;SDS011;3443;48.812;9.112;2023-04-29T01:22:50;1.30;;;1.30;;
6809;SDS011;3443;48.812;9.112;2023-04-29T01:25:16;1.60;;;0.80;;
6809;SDS011;3443;48.812;9.112;2023-04-29T01:28:01;2.78;;;1.30;;
6809;SDS011;3443;48.812;9.112;2023-04-29T01:30:59;4.32;;;1.10;;
6809;SDS011;3443;48.812;9.112;2023-04-29T01:33:59;0.90;;;0.90;;
6809;SDS011;3443;48.812;9.112;2023-04-29T01:36:46;4.45;;;1.30;;
6809;SDS011;3443;48.812;9.112;2023-04-29T01:39:40;1.10;;;0.90;;
6809;SDS011;3443;48.812;9.112;2023-04-29T01:42:34;0.82;;;0.82;;
6809;SDS011;3443;48.812;9.112;2023-04-29T01:45:05;1.25;;;1.15;;
6809;SDS011;3443;48.812;9.112;2023-04-29T01:47:32;2.65;;;0.90;;
6809;SDS011;3443;48.812;9.112;2023-04-29T01:50:00;0.80;;;0.80;;
6809;SDS011;3443;48.812;9.112;2023-04-29T01:52:26;1.27;;;1.15;;
6809;SDS011;3443;48.812;9.112;2023-04-29T01:54:52;1.23;;;1.23;;
6809;SDS011;3443;48.812;9.112;2023-04-29T01:57:18;1.17;;;1.10;;
6809;SDS011;3443;48.812;9.112;2023-04-29T01:59:43;1.15;;;1.15;;
6809;SDS011;3443;48.812;9.112;2023-04-29T02:02:09;1.42;;;1.25;;
6809;SDS011;3443;48.812;9.112;2023-04-29T02:04:34;1.58;;;1.00;;
6809;SDS011;3443;48.812;9.112;2023-04-29T02:07:00;1.20;;;1.20;;
6809;SDS011;3443;48.812;9.112;2023-04-29T02:09:25;1.42;;;1.30;;
6809;SDS011;3443;48.812;9.112;2023-04-29T02:11:51;1.52;;;1.25;;
6809;SDS011;3443;48.812;9.112;2023-04-29T02:14:17;3.13;;;1.20;;
6809;SDS011;3443;48.812;9.112;2023-04-29T02:16:43;1.20;;;1.17;;
6809;SDS011;3443;48.812;9.112;2023-04-29T02:19:09;1.10;;;1.10;;
6809;SDS011;3443;48.812;9.112;2023-04-29T02:21:35;1.17;;;1.13;;
6809;SDS011;3443;48.812;9.112;2023-04-29T02:24:00;1.55;;;1.45;;
6809;SDS011;3443;48.812;9.112;2023-04-29T02:26:26;1.10;;;1.10;;
6809;SDS011;3443;48.812;9.112;2023-04-29T02:28:52;1.40;;;1.40;;
6809;SDS011;3443;48.812;9.112;2023-04-29T02:31:17;3.05;;;1.33;;
6809;SDS011;3443;48.812;9.112;2023-04-29T02:33:43;1.30;;;1.20;;
6809;SDS011;3443;48.812;9.112;2023-04-29T02:36:08;1.20;;;1.20;;
6809;SDS011;3443;48.812;9.112;2023-04-29T02:38:34;2.00;;;1.42;;
6809;SDS011;3443;48.812;9.112;2023-04-29T02:41:00;1.73;;;1.63;;
6809;SDS011;3443;48.812;9.112;2023-04-29T02:43:25;1.60;;;1.50;;
6809;SDS011;3443;48.812;9.112;2023-04-29T02:45:54;1.63;;;1.52;;
6809;SDS011;3443;48.812;9.112;2023-04-29T02:48:20;1.50;;;1.40;;
6809;SDS011;3443;48.812;9.112;2023-04-29T02:50:45;2.70;;;1.48;;
6809;SDS011;3443;48.812;9.112;2023-04-29T02:53:11;1.40;;;1.40;;
6809;SDS011;3443;48.812;9.112;2023-04-29T02:55:37;1.70;;;1.60;;
6809;SDS011;3443;48.812;9.112;2023-04-29T02:58:02;2.17;;;1.60;;
6809;SDS011;3443;48.812;9.112;2023-04-29T03:00:28;1.67;;;1.52;;
6809;SDS011;3443;48.812;9.112;2023-04-29T03:02:53;1.77;;;1.50;;
6809;SDS011;3443;48.812;9.112;2023-04-29T03:05:19;1.40;;;1.30;;
6809;SDS011;3443;48.812;9.112;2023-04-29T03:07:44;1.38;;;1.30;;
6809;SDS011;3443;48.812;9.112;2023-04-29T03:10:10;1.48;;;1.48;;
6809;SDS011;3443;48.812;9.112;2023-04-29T03:12:36;2.80;;;1.50;;
6809;SDS011;3443;48.812;9.112;2023-04-29T03:15:03;3.67;;;1.45;;
6809;SDS011;3443;48.812;9.112;2023-04-29T03:17:30;1.27;;;1.27;;
6809;SDS011;3443;48.812;9.112;2023-04-29T03:19:56;1.60;;;1.50;;
6809;SDS011;3443;48.812;9.112;2023-04-29T03:22:22;1.48;;;1.48;;
6809;SDS011;3443;48.812;9.112;2023-04-29T03:24:47;1.30;;;1.25;;
6809;SDS011;3443;48.812;9.112;2023-04-29T03:27:13;1.50;;;1.45;;
6809;SDS011;3443;48.812;9.112;2023-04-29T03:29:39;1.95;;;1.30;;
6809;SDS011;3443;48.812;9.112;2023-04-29T03:32:04;1.42;;;1.42;;
6809;SDS011;3443;48.812;9.112;2023-04-29T03:34:30;1.40;;;1.30;;
6809;SDS011;3443;48.812;9.112;2023-04-29T03:36:56;1.60;;;1.40;;
6809;SDS011;3443;48.812;9.112;2023-04-29T03:39:21;1.98;;;1.88;;
6809;SDS011;3443;48.812;9.112;2023-04-29T03:41:47;1.63;;;1.50;;
6809;SDS011;3443;48.812;9.112;2023-04-29T03:44:13;1.60;;;1.60;;
6809;SDS011;3443;48.812;9.112;2023-04-29T03:46:38;1.58;;;1.48;;
6809;SDS011;3443;48.812;9.112;2023-04-29T03:49:04;3.45;;;1.90;;
6809;SDS011;3443;48.812;9.112;2023-04-29T03:51:29;1.35;;;1.33;;
6809;SDS011;3443;48.812;9.112;2023-04-29T03:53:55;1.58;;;1.48;;
6809;SDS011;3443;48.812;9.112;2023-04-29T03:56:21;1.42;;;1.42;;
6809;SDS011;3443;48.812;9.112;2023-04-29T03:58:49;1.50;;;1.50;;
6809;SDS011;3443;48.812;9.112;2023-04-29T04:01:15;1.55;;;1.55;;
6809;SDS011;3443;48.812;9.112;2023-04-29T04:03:41;1.83;;;1.73;;
6809;SDS011;3443;48.812;9.112;2023-04-29T04:06:07;1.50;;;1.50;;
6809;SDS011;3443;48.812;9.112;2023-04-29T04:08:33;1.85;;;1.75;;
6809;SDS011;3443;48.812;9.112;2023-04-29T04:10:58;1.33;;;1.33;;
6809;SDS011;3443;48.812;9.112;2023-04-29T04:13:27;1.63;;;1.52;;
6809;SDS011;3443;48.812;9.112;2023-04-29T04:15:53;1.48;;;1.48;;
6809;SDS011;3443;48.812;9.112;2023-04-29T04:18:18;1.23;;;1.23;;
6809;SDS011;3443;48.812;9.112;2023-04-29T04:20:44;1.23;;;1.23;;
6809;SDS011;3443;48.812;9.112;2023-04-29T04:23:10;4.13;;;1.63;;
6809;SDS011;3443;48.812;9.112;2023-04-29T04:25:35;1.95;;;1.88;;
6809;SDS011;3443;48.812;9.112;2023-04-29T04:28:01;1.50;;;1.50;;
6809;SDS011;3443;48.812;9.112;2023-04-29T04:30:26;2.13;;;1.83;;
6809;SDS011;3443;48.812;9.112;2023-04-29T04:32:52;1.50;;;1.50;;
6809;SDS011;3443;48.812;9.112;2023-04-29T04:35:17;2.22;;;2.13;;
6809;SDS011;3443;48.812;9.112;2023-04-29T04:37:43;2.58;;;1.80;;
6809;SDS011;3443;48.812;9.112;2023-04-29T04:40:09;2.10;;;2.00;;
6809;SDS011;3443;48.812;9.112;2023-04-29T04:42:35;1.90;;;1.90;;
6809;SDS011;3443;48.812;9.112;2023-04-29T04:45:01;3.83;;;1.98;;
6809;SDS011;3443;48.812;9.112;2023-04-29T04:47:27;1.77;;;1.70;;
6809;SDS011;3443;48.812;9.112;2023-04-29T04:49:53;2.20;;;2.10;;
6809;SDS011;3443;48.812;9.112;2023-04-29T04:52:19;1.83;;;1.73;;
6809;SDS011;3443;48.812;9.112;2023-04-29T04:54:45;3.08;;;2.20;;
6809;SDS011;3443;48.812;9.112;2023-04-29T04:57:11;1.85;;;1.85;;
6809;SDS011;3443;48.812;9.112;2023-04-29T04:59:37;1.83;;;1.70;;
6809;SDS011;3443;48.812;9.112;2023-04-29T05:02:03;2.15;;;2.05;;
6809;SDS011;3443;48.812;9.112;2023-04-29T05:04:28;2.33;;;2.22;;
6809;SDS011;3443;48.812;9.112;2023-04-29T05:06:54;2.40;;;2.20;;
6809;SDS011;3443;48.812;9.112;2023-04-29T05:09:19;2.50;;;2.40;;
6809;SDS011;3443;48.812;9.112;2023-04-29T05:11:45;2.28;;;2.10;;
6809;SDS011;3443;48.812;9.112;2023-04-29T05:14:10;1.98;;;1.98;;
6809;SDS011;3443;48.812;9.112;2023-04-29T05:16:36;2.30;;;2.20;;
6809;SDS011;3443;48.812;9.112;2023-04-29T05:19:02;2.72;;;2.55;;
6809;SDS011;3443;48.812;9.112;2023-04-29T05:21:27;2.97;;;2.53;;
6809;SDS011;3443;48.812;9.112;2023-04-29T05:23:54;3.03;;;2.55;;
6809;SDS011;3443;48.812;9.112;2023-04-29T05:26:20;2.53;;;2.40;;
6809;SDS011;3443;48.812;9.112;2023-04-29T05:28:45;2.47;;;2.38;;
6809;SDS011;3443;48.812;9.112;2023-04-29T05:31:11;3.40;;;3.20;;
6809;SDS011;3443;48.812;9.112;2023-04-29T05:33:36;2.40;;;2.20;;
6809;SDS011;3443;48.812;9.112;2023-04-29T05:36:02;2.63;;;2.50;;
6809;SDS011;3443;48.812;9.112;2023-04-29T05:38:28;5.13;;;2.80;;
6809;SDS011;3443;48.812;9.112;2023-04-29T05:40:56;2.70;;;2.53;;
6809;SDS011;3443;48.812;9.112;2023-04-29T05:43:22;2.95;;;2.40;;
6809;SDS011;3443;48.812;9.112;2023-04-29T05:45:48;2.63;;;2.40;;
6809;SDS011;3443;48.812;9.112;2023-04-29T05:48:13;2.67;;;2.47;;
6809;SDS011;3443;48.812;9.112;2023-04-29T05:50:39;2.83;;;2.63;;
6809;SDS011;3443;48.812;9.112;2023-04-29T05:53:05;2.80;;;2.60;;
6809;SDS011;3443;48.812;9.112;2023-04-29T05:55:31;2.70;;;2.60;;
6809;SDS011;3443;48.812;9.112;2023-04-29T05:57:56;2.50;;;2.40;;
6809;SDS011;3443;48.812;9.112;2023-04-29T06:00:22;2.60;;;2.40;;
6809;SDS011;3443;48.812;9.112;2023-04-29T06:02:48;3.22;;;2.53;;
6809;SDS011;3443;48.812;9.112;2023-04-29T06:05:13;2.70;;;2.60;;
6809;SDS011;3443;48.812;9.112;2023-04-29T06:07:39;2.60;;;2.50;;
6809;SDS011;3443;48.812;9.112;2023-04-29T06:10:06;2.33;;;2.22;;
6809;SDS011;3443;48.812;9.112;2023-04-29T06:12:32;2.80;;;2.60;;
6809;SDS011;3443;48.812;9.112;2023-04-29T06:14:58;2.83;;;2.72;;
6809;SDS011;3443;48.812;9.112;2023-04-29T06:17:24;3.40;;;3.10;;
6809;SDS011;3443;48.812;9.112;2023-04-29T06:19:49;3.25;;;3.15;;
6809;SDS011;3443;48.812;9.112;2023-04-29T06:22:15;4.22;;;3.00;;
6809;SDS011;3443;48.812;9.112;2023-04-29T06:24:41;3.45;;;3.33;;
6809;SDS011;3443;48.812;9.112;2023-04-29T06:27:07;3.00;;;2.90;;
6809;SDS011;3443;48.812;9.112;2023-04-29T06:29:33;2.95;;;2.80;;
6809;SDS011;3443;48.812;9.112;2023-04-29T06:31:58;2.20;;;2.10;;
6809;SDS011;3443;48.812;9.112;2023-04-29T06:34:24;2.80;;;2.22;;
6809;SDS011;3443;48.812;9.112;2023-04-29T06:36:49;2.38;;;2.28;;
6809;SDS011;3443;48.812;9.112;2023-04-29T06:39:15;1.80;;;1.80;;
6809;SDS011;3443;48.812;9.112;2023-04-29T06:41:40;2.00;;;2.00;;
6809;SDS011;3443;48.812;9.112;2023-04-29T06:44:06;1.67;;;1.60;;
6809;SDS011;3443;48.812;9.112;2023-04-29T06:46:32;1.60;;;1.60;;
6809;SDS011;3443;48.812;9.112;2023-04-29T06:48:58;1.50;;;1.50;;
6809;SDS011;3443;48.812;9.112;2023-04-29T06:51:23;1.30;;;1.30;;
6809;SDS011;3443;48.812;9.112;2023-04-29T06:53:49;1.30;;;1.30;;
6809;SDS011;3443;48.812;9.112;2023-04-29T06:56:14;1.30;;;1.30;;
6809;SDS011;3443;48.812;9.112;2023-04-29T06:58:40;1.10;;;1.10;;
6809;SDS011;3443;48.812;9.112;2023-04-29T07:01:06;1.27;;;1.27;;
6809;SDS011;3443;48.812;9.112;2023-04-29T07:03:32;1.15;;;1.10;;
6809;SDS011;3443;48.812;9.112;2023-04-29T07:05:58;1.10;;;1.10;;
6809;SDS011;3443;48.812;9.112;2023-04-29T07:08:23;1.23;;;1.20;;
6809;SDS011;3443;48.812;9.112;2023-04-29T07:10:52;0.95;;;0.95;;
6809;SDS011;3443;48.812;9.112;2023-04-29T07:13:19;1.08;;;1.08;;
6809;SDS011;3443;48.812;9.112;2023-04-29T07:15:45;1.10;;;1.10;;
6809;SDS011;3443;48.812;9.112;2023-04-29T07:18:10;2.28;;;1.33;;
6809;SDS011;3443;48.812;9.112;2023-04-29T07:20:36;1.08;;;1.08;;
6809;SDS011;3443;48.812;9.112;2023-04-29T07:23:01;1.00;;;1.00;;
6809;SDS011;3443;48.812;9.112;2023-04-29T07:25:27;1.58;;;1.48;;
6809;SDS011;3443;48.812;9.112;2023-04-29T07:27:53;1.25;;;1.20;;
6809;SDS011;3443;48.812;9.112;2023-04-29T07:30:19;1.08;;;1.08;;
6809;SDS011;3443;48.812;9.112;2023-04-29T07:32:45;1.17;;;1.17;;
6809;SDS011;3443;48.812;9.112;2023-04-29T07:35:11;1.40;;;1.30;;
6809;SDS011;3443;48.812;9.112;2023-04-29T07:37:36;1.48;;;1.40;;
6809;SDS011;3443;48.812;9.112;2023-04-29T07:40:02;1.33;;;1.33;;
6809;SDS011;3443;48.812;9.112;2023-04-29T07:42:27;2.75;;;1.30;;
6809;SDS011;3443;48.812;9.112;2023-04-29T07:44:53;0.90;;;0.90;;
6809;SDS011;3443;48.812;9.112;2023-04-29T07:47:18;0.85;;;0.85;;
6809;SDS011;3443;48.812;9.112;2023-04-29T07:49:44;1.00;;;1.00;;
6809;SDS011;3443;48.812;9.112;2023-04-29T07:52:10;0.98;;;0.98;;
6809;SDS011;3443;48.812;9.112;2023-04-29T07:54:35;2.53;;;1.40;;
6809;SDS011;3443;48.812;9.112;2023-04-29T07:57:01;2.92;;;1.30;;
6809;SDS011;3443;48.812;9.112;2023-04-29T07:59:30;2.65;;;1.25;;
6809;SDS011;3443;48.812;9.112;2023-04-29T08:01:56;1.40;;;1.10;;
6809;SDS011;3443;48.812;9.112;2023-04-29T08:04:22;1.02;;;1.02;;
6809;SDS011;3443;48.812;9.112;2023-04-29T08:06:48;1.20;;;1.20;;
6809;SDS011;3443;48.812;9.112;2023-04-29T08:09:14;1.30;;;1.27;;
6809;SDS011;3443;48.812;9.112;2023-04-29T08:11:40;1.25;;;1.20;;
6809;SDS011;3443;48.812;9.112;2023-04-29T08:14:05;0.98;;;0.98;;
6809;SDS011;3443;48.812;9.112;2023-04-29T08:16:31;1.50;;;1.40;;
6809;SDS011;3443;48.812;9.112;2023-04-29T08:18:57;1.90;;;1.80;;
6809;SDS011;3443;48.812;9.112;2023-04-29T08:21:22;1.13;;;1.13;;
6809;SDS011;3443;48.812;9.112;2023-04-29T08:23:48;1.13;;;1.13;;
6809;SDS011;3443;48.812;9.112;2023-04-29T08:26:14;1.02;;;1.02;;
6809;SDS011;3443;48.812;9.112;2023-04-29T08:28:39;0.98;;;0.98;;
6809;SDS011;3443;48.812;9.112;2023-04-29T08:31:05;1.40;;;1.40;;
6809;SDS011;3443;48.812;9.112;2023-04-29T08:33:35;1.20;;;1.20;;
6809;SDS011;3443;48.812;9.112;2023-04-29T08:36:01;1.33;;;1.30;;
6809;SDS011;3443;48.812;9.112;2023-04-29T08:38:30;1.63;;;1.60;;
6809;SDS011;3443;48.812;9.112;2023-04-29T08:40:56;2.05;;;1.98;;
6809;SDS011;3443;48.812;9.112;2023-04-29T08:43:22;1.58;;;1.58;;
6809;SDS011;3443;48.812;9.112;2023-04-29T08:45:48;1.40;;;1.40;;
6809;SDS011;3443;48.812;9.112;2023-04-29T08:48:17;1.60;;;1.50;;
6809;SDS011;3443;48.812;9.112;2023-04-29T08:50:43;1.80;;;1.70;;
6809;SDS011;3443;48.812;9.112;2023-04-29T08:53:09;1.50;;;1.40;;
6809;SDS011;3443;48.812;9.112;2023-04-29T08:55:40;1.45;;;1.45;;
6809;SDS011;3443;48.812;9.112;2023-04-29T08:58:10;1.58;;;1.48;;
6809;SDS011;3443;48.812;9.112;2023-04-29T09:00:38;1.70;;;1.60;;
6809;SDS011;3443;48.812;9.112;2023-04-29T09:03:16;2.30;;;2.20;;
6809;SDS011;3443;48.812;9.112;2023-04-29T09:05:48;2.00;;;1.90;;
6809;SDS011;3443;48.812;9.112;2023-04-29T09:08:17;2.35;;;2.25;;
6809;SDS011;3443;48.812;9.112;2023-04-29T09:10:45;2.20;;;2.20;;
6809;SDS011;3443;48.812;9.112;2023-04-29T09:13:27;1.88;;;1.88;;
6809;SDS011;3443;48.812;9.112;2023-04-29T09:15:54;1.95;;;1.85;;
6809;SDS011;3443;48.812;9.112;2023-04-29T09:21:12;1.85;;;1.83;;
6809;SDS011;3443;48.812;9.112;2023-04-29T09:23:49;1.60;;;1.60;;
6809;SDS011;3443;48.812;9.112;2023-04-29T09:26:16;1.83;;;1.70;;
6809;SDS011;3443;48.812;9.112;2023-04-29T09:28:41;1.38;;;1.38;;
6809;SDS011;3443;48.812;9.112;2023-04-29T09:31:09;1.15;;;1.15;;
6809;SDS011;3443;48.812;9.112;2023-04-29T09:33:54;1.50;;;1.40;;
6809;SDS011;3443;48.812;9.112;2023-04-29T09:44:16;2.03;;;1.92;;
6809;SDS011;3443;48.812;9.112;2023-04-29T09:46:43;1.88;;;1.80;;
6809;SDS011;3443;48.812;9.112;2023-04-29T09:49:24;4.30;;;2.22;;
6809;SDS011;3443;48.812;9.112;2023-04-29T09:52:08;1.60;;;1.60;;
6809;SDS011;3443;48.812;9.112;2023-04-29T09:54:38;1.67;;;1.58;;
6809;SDS011;3443;48.812;9.112;2023-04-29T09:57:06;3.15;;;1.90;;
6809;SDS011;3443;48.812;9.112;2023-04-29T09:59:34;1.40;;;1.40;;
6809;SDS011;3443;48.812;9.112;2023-04-29T10:02:01;1.63;;;1.58;;
6809;SDS011;3443;48.812;9.112;2023-04-29T10:04:34;1.40;;;1.40;;
6809;SDS011;3443;48.812;9.112;2023-04-29T10:07:00;1.30;;;1.20;;
6809;SDS011;3443;48.812;9.112;2023-04-29T10:09:26;1.50;;;1.40;;
6809;SDS011;3443;48.812;9.112;2023-04-29T10:11:53;1.73;;;1.40;;
6809;SDS011;3443;48.812;9.112;2023-04-29T10:14:19;1.67;;;1.60;;
6809;SDS011;3443;48.812;9.112;2023-04-29T10:16:46;2.13;;;1.40;;
6809;SDS011;3443;48.812;9.112;2023-04-29T10:19:57;2.70;;;1.38;;
6809;SDS011;3443;48.812;9.112;2023-04-29T10:22:24;1.30;;;1.23;;
6809;SDS011;3443;48.812;9.112;2023-04-29T10:25:09;4.55;;;1.60;;
6809;SDS011;3443;48.812;9.112;2023-04-29T10:27:36;1.55;;;1.52;;
6809;SDS011;3443;48.812;9.112;2023-04-29T10:30:03;1.77;;;1.77;;
6809;SDS011;3443;48.812;9.112;2023-04-29T10:32:33;1.58;;;1.58;;
6809;SDS011;3443;48.812;9.112;2023-04-29T10:34:59;1.50;;;1.50;;
6809;SDS011;3443;48.812;9.112;2023-04-29T10:37:26;1.73;;;1.67;;
6809;SDS011;3443;48.812;9.112;2023-04-29T10:39:55;1.75;;;1.65;;
6809;SDS011;3443;48.812;9.112;2023-04-29T10:50:27;1.60;;;1.27;;
6809;SDS011;3443;48.812;9.112;2023-04-29T10:52:56;1.40;;;1.40;;
6809;SDS011;3443;48.812;9.112;2023-04-29T10:55:22;1.27;;;1.27;;
6809;SDS011;3443;48.812;9.112;2023-04-29T10:57:49;2.22;;;1.50;;
6809;SDS011;3443;48.812;9.112;2023-04-29T11:00:26;2.00;;;1.98;;
6809;SDS011;3443;48.812;9.112;2023-04-29T11:02:53;1.70;;;1.60;;
6809;SDS011;3443;48.812;9.112;2023-04-29T11:05:32;1.33;;;1.30;;
6809;SDS011;3443;48.812;9.112;2023-04-29T11:08:14;1.75;;;1.42;;
6809;SDS011;3443;48.812;9.112;2023-04-29T11:10:49;1.10;;;1.10;;
6809;SDS011;3443;48.812;9.112;2023-04-29T11:13:29;0.85;;;0.80;;
6809;SDS011;3443;48.812;9.112;2023-04-29T11:16:03;0.77;;;0.77;;
6809;SDS011;3443;48.812;9.112;2023-04-29T11:18:29;0.90;;;0.90;;
6809;SDS011;3443;48.812;9.112;2023-04-29T11:23:30;1.20;;;1.20;;
6809;SDS011;3443;48.812;9.112;2023-04-29T11:25:59;1.88;;;1.77;;
6809;SDS011;3443;48.812;9.112;2023-04-29T11:28:31;1.50;;;1.38;;
6809;SDS011;3443;48.812;9.112;2023-04-29T11:30:58;1.45;;;1.35;;
6809;SDS011;3443;48.812;9.112;2023-04-29T11:33:25;1.10;;;1.10;;
6809;SDS011;3443;48.812;9.112;2023-04-29T11:35:52;1.73;;;1.58;;
6809;SDS011;3443;48.812;9.112;2023-04-29T11:38:23;1.65;;;1.65;;
6809;SDS011;3443;48.812;9.112;2023-04-29T11:40:53;1.70;;;1.70;;
6809;SDS011;3443;48.812;9.112;2023-04-29T11:43:20;3.15;;;2.25;;
6809;SDS011;3443;48.812;9.112;2023-04-29T11:45:47;2.22;;;2.13;;
6809;SDS011;3443;48.812;9.112;2023-04-29T11:48:23;3.53;;;3.10;;
6809;SDS011;3443;48.812;9.112;2023-04-29T11:50:51;3.20;;;2.60;;
6809;SDS011;3443;48.812;9.112;2023-04-29T11:53:18;2.95;;;2.70;;
6809;SDS011;3443;48.812;9.112;2023-04-29T11:55:45;2.95;;;2.75;;
6809;SDS011;3443;48.812;9.112;2023-04-29T11:58:11;3.97;;;3.60;;
6809;SDS011;3443;48.812;9.112;2023-04-29T12:00:40;3.72;;;3.53;;
6809;SDS011;3443;48.812;9.112;2023-04-29T12:03:15;3.63;;;3.53;;
6809;SDS011;3443;48.812;9.112;2023-04-29T12:05:52;4.40;;;4.03;;
6809;SDS011;3443;48.812;9.112;2023-04-29T12:08:22;3.85;;;3.65;;
6809;SDS011;3443;48.812;9.112;2023-04-29T12:10:48;4.45;;;4.15;;
6809;SDS011;3443;48.812;9.112;2023-04-29T12:13:15;4.18;;;3.88;;
6809;SDS011;3443;48.812;9.112;2023-04-29T12:15:42;4.53;;;4.22;;
6809;SDS011;3443;48.812;9.112;2023-04-29T12:18:13;4.53;;;3.80;;
6809;SDS011;3443;48.812;9.112;2023-04-29T12:20:39;4.55;;;4.15;;
6809;SDS011;3443;48.812;9.112;2023-04-29T12:23:14;4.15;;;3.95;;
6809;SDS011;3443;48.812;9.112;2023-04-29T12:28:17;5.20;;;4.88;;
6809;SDS011;3443;48.812;9.112;2023-04-29T12:30:47;5.43;;;5.03;;
6809;SDS011;3443;48.812;9.112;2023-04-29T12:33:21;7.05;;;5.40;;
6809;SDS011;3443;48.812;9.112;2023-04-29T12:35:56;4.97;;;4.68;;
6809;SDS011;3443;48.812;9.112;2023-04-29T12:38:26;5.05;;;4.65;;
6809;SDS011;3443;48.812;9.112;2023-04-29T12:40:53;6.03;;;4.93;;
6809;SDS011;3443;48.812;9.112;2023-04-29T12:43:29;5.38;;;4.97;;
6809;SDS011;3443;48.812;9.112;2023-04-29T12:46:00;5.50;;;5.20;;
6809;SDS011;3443;48.812;9.112;2023-04-29T12:48:31;5.22;;;4.55;;
6809;SDS011;3443;48.812;9.112;2023-04-29T12:50:57;5.63;;;5.22;;
6809;SDS011;3443;48.812;9.112;2023-04-29T12:53:24;5.63;;;5.03;;
6809;SDS011;3443;48.812;9.112;2023-04-29T12:55:51;5.70;;;5.30;;
6809;SDS011;3443;48.812;9.112;2023-04-29T12:58:17;5.15;;;4.80;;
6809;SDS011;3443;48.812;9.112;2023-04-29T13:00:43;4.90;;;4.55;;
6809;SDS011;3443;48.812;9.112;2023-04-29T13:03:08;5.55;;;5.15;;
6809;SDS011;3443;48.812;9.112;2023-04-29T13:05:34;5.47;;;4.93;;
6809;SDS011;3443;48.812;9.112;2023-04-29T13:07:59;4.95;;;4.65;;
6809;SDS011;3443;48.812;9.112;2023-04-29T13:10:25;5.70;;;5.20;;
6809;SDS011;3443;48.812;9.112;2023-04-29T13:12:52;5.05;;;4.65;;
6809;SDS011;3443;48.812;9.112;2023-04-29T13:15:18;5.40;;;4.97;;
6809;SDS011;3443;48.812;9.112;2023-04-29T13:17:44;5.35;;;4.97;;
6809;SDS011;3443;48.812;9.112;2023-04-29T13:20:10;5.72;;;5.22;;
6809;SDS011;3443;48.812;9.112;2023-04-29T13:22:36;5.82;;;5.43;;
6809;SDS011;3443;48.812;9.112;2023-04-29T13:25:02;6.10;;;5.50;;
6809;SDS011;3443;48.812;9.112;2023-04-29T13:27:28;6.00;;;5.43;;
6809;SDS011;3443;48.812;9.112;2023-04-29T13:29:54;6.40;;;5.90;;
6809;SDS011;3443;48.812;9.112;2023-04-29T13:32:20;7.70;;;5.90;;
6809;SDS011;3443;48.812;9.112;2023-04-29T13:34:48;6.32;;;5.82;;
6809;SDS011;3443;48.812;9.112;2023-04-29T13:37:14;4.97;;;4.68;;
6809;SDS011;3443;48.812;9.112;2023-04-29T13:39:40;6.43;;;5.30;;
6809;SDS011;3443;48.812;9.112;2023-04-29T13:42:06;6.88;;;5.82;;
6809;SDS011;3443;48.812;9.112;2023-04-29T13:44:32;5.95;;;5.43;;
6809;SDS011;3443;48.812;9.112;2023-04-29T13:46:58;5.63;;;5.13;;
6809;SDS011;3443;48.812;9.112;2023-04-29T13:49:23;6.00;;;5.47;;
6809;SDS011;3443;48.812;9.112;2023-04-29T13:51:49;6.13;;;5.63;;
6809;SDS011;3443;48.812;9.112;2023-04-29T13:54:14;7.35;;;5.90;;
6809;SDS011;3443;48.812;9.112;2023-04-29T13:56:41;6.57;;;6.07;;
6809;SDS011;3443;48.812;9.112;2023-04-29T13:59:06;5.63;;;5.07;;
6809;SDS011;3443;48.812;9.112;2023-04-29T14:01:32;6.35;;;5.68;;
6809;SDS011;3443;48.812;9.112;2023-04-29T14:03:57;7.00;;;5.80;;
6809;SDS011;3443;48.812;9.112;2023-04-29T14:06:23;6.47;;;5.82;;
6809;SDS011;3443;48.812;9.112;2023-04-29T14:08:49;6.43;;;5.90;;
6809;SDS011;3443;48.812;9.112;2023-04-29T14:11:14;6.55;;;5.97;;
6809;SDS011;3443;48.812;9.112;2023-04-29T14:13:40;6.72;;;6.13;;
6809;SDS011;3443;48.812;9.112;2023-04-29T14:16:06;6.15;;;5.65;;
6809;SDS011;3443;48.812;9.112;2023-04-29T14:18:33;6.45;;;5.95;;
6809;SDS011;3443;48.812;9.112;2023-04-29T14:20:59;5.63;;;5.10;;
6809;SDS011;3443;48.812;9.112;2023-04-29T14:23:24;7.97;;;6.10;;
6809;SDS011;3443;48.812;9.112;2023-04-29T14:25:50;8.52;;;6.22;;
6809;SDS011;3443;48.812;9.112;2023-04-29T14:28:15;7.28;;;6.28;;
6809;SDS011;3443;48.812;9.112;2023-04-29T14:30:41;7.25;;;6.57;;
6809;SDS011;3443;48.812;9.112;2023-04-29T14:33:07;6.93;;;6.32;;
6809;SDS011;3443;48.812;9.112;2023-04-29T14:35:33;7.35;;;6.47;;
6809;SDS011;3443;48.812;9.112;2023-04-29T14:37:59;7.35;;;6.75;;
6809;SDS011;3443;48.812;9.112;2023-04-29T14:40:24;6.68;;;6.18;;
6809;SDS011;3443;48.812;9.112;2023-04-29T14:42:50;7.57;;;6.97;;
6809;SDS011;3443;48.812;9.112;2023-04-29T14:45:15;9.68;;;7.95;;
6809;SDS011;3443;48.812;9.112;2023-04-29T14:47:41;7.32;;;6.65;;
6809;SDS011;3443;48.812;9.112;2023-04-29T14:50:07;6.90;;;6.30;;
6809;SDS011;3443;48.812;9.112;2023-04-29T14:52:34;7.78;;;7.07;;
6809;SDS011;3443;48.812;9.112;2023-04-29T14:55:00;6.40;;;5.90;;
6809;SDS011;3443;48.812;9.112;2023-04-29T14:57:25;6.72;;;6.13;;
6809;SDS011;3443;48.812;9.112;2023-04-29T14:59:51;6.63;;;6.10;;
6809;SDS011;3443;48.812;9.112;2023-04-29T15:02:17;6.53;;;5.85;;
6809;SDS011;3443;48.812;9.112;2023-04-29T15:04:42;6.78;;;6.15;;
6809;SDS011;3443;48.812;9.112;2023-04-29T15:07:13;6.47;;;5.88;;
6809;SDS011;3443;48.812;9.112;2023-04-29T15:09:39;6.78;;;6.18;;
6809;SDS011;3443;48.812;9.112;2023-04-29T15:12:06;6.85;;;5.72;;
6809;SDS011;3443;48.812;9.112;2023-04-29T15:14:32;5.88;;;5.40;;
6809;SDS011;3443;48.812;9.112;2023-04-29T15:16:58;5.07;;;4.78;;
6809;SDS011;3443;48.812;9.112;2023-04-29T15:19:23;6.25;;;5.75;;
6809;SDS011;3443;48.812;9.112;2023-04-29T15:21:50;6.40;;;5.85;;
6809;SDS011;3443;48.812;9.112;2023-04-29T15:24:17;7.03;;;6.32;;
6809;SDS011;3443;48.812;9.112;2023-04-29T15:26:43;5.90;;;5.50;;
6809;SDS011;3443;48.812;9.112;2023-04-29T15:29:10;5.88;;;5.32;;
6809;SDS011;3443;48.812;9.112;2023-04-29T15:31:36;6.47;;;5.88;;
6809;SDS011;3443;48.812;9.112;2023-04-29T15:34:02;6.15;;;5.55;;
6809;SDS011;3443;48.812;9.112;2023-04-29T15:36:28;6.25;;;5.65;;
6809;SDS011;3443;48.812;9.112;2023-04-29T15:38:55;4.80;;;4.50;;
6809;SDS011;3443;48.812;9.112;2023-04-29T15:41:21;5.45;;;5.15;;
6809;SDS011;3443;48.812;9.112;2023-04-29T15:43:47;6.32;;;5.40;;
6809;SDS011;3443;48.812;9.112;2023-04-29T15:46:12;6.10;;;5.55;;
6809;SDS011;3443;48.812;9.112;2023-04-29T15:48:38;5.80;;;5.40;;